Time;durP1;ratioP1;P1;durP2;ratioP2;P2;SDS_P1;SDS_P2;PMS_P1;PMS_P2;Temp;Humidity;BMP_temperature;BMP_pressure;BME280_temperature;BME280_humidity;BME280_pressure;Samples;Min_cycle;Max_cycle;Signal;HPM_P1;HPM_P2
2022/09/06 00:01:57;;;;;;;12.20;8.82;;;;;;;;;;5052480;28;20464;-84
2022/09/06 00:04:24;;;;;;;10.45;8.75;;;;;;;;;;5051532;28;20110;-83
2022/09/06 00:06:51;;;;;;;8.50;7.80;;;;;;;;;;5052794;28;20423;-84
2022/09/06 00:09:18;;;;;;;10.30;8.23;;;;;;;;;;5051803;28;20080;-83
2022/09/06 00:11:46;;;;;;;10.35;9.43;;;;;;;;;;5051344;28;20084;-84
2022/09/06 00:14:13;;;;;;;9.57;8.77;;;;;;;;;;5051650;28;20053;-84
2022/09/06 00:16:40;;;;;;;10.15;9.10;;;;;;;;;;5055755;28;20081;-83
2022/09/06 00:19:07;;;;;;;10.15;9.25;;;;;;;;;;5055972;28;20052;-84
2022/09/06 00:21:34;;;;;;;9.98;8.95;;;;;;;;;;5055373;28;20045;-83
2022/09/06 00:24:02;;;;;;;9.88;8.93;;;;;;;;;;5055828;28;20128;-84
2022/09/06 00:26:29;;;;;;;10.15;9.07;;;;;;;;;;5055601;28;20045;-83
2022/09/06 00:28:57;;;;;;;10.30;9.32;;;;;;;;;;5056628;28;20053;-83
2022/09/06 00:31:25;;;;;;;9.75;8.85;;;;;;;;;;5056327;28;20184;-84
2022/09/06 00:33:52;;;;;;;10.35;9.55;;;;;;;;;;5056022;28;20084;-83
2022/09/06 00:36:19;;;;;;;10.18;9.15;;;;;;;;;;5056897;28;20077;-84
2022/09/06 00:38:47;;;;;;;9.95;9.05;;;;;;;;;;5055305;28;20467;-83
2022/09/06 00:41:15;;;;;;;10.35;9.45;;;;;;;;;;5055678;28;20095;-84
2022/09/06 00:43:42;;;;;;;14.65;10.55;;;;;;;;;;5055794;28;20076;-84
2022/09/06 00:46:11;;;;;;;11.25;10.35;;;;;;;;;;5056414;28;20075;-84
2022/09/06 00:48:39;;;;;;;11.55;10.43;;;;;;;;;;5057072;28;20045;-84
2022/09/06 00:51:07;;;;;;;10.10;9.05;;;;;;;;;;5055893;28;20168;-83
2022/09/06 00:53:35;;;;;;;10.38;9.30;;;;;;;;;;5057577;28;20098;-81
2022/09/06 00:56:02;;;;;;;10.65;9.65;;;;;;;;;;5056074;28;20468;-84
2022/09/06 00:58:29;;;;;;;10.70;9.65;;;;;;;;;;5055558;28;20354;-83
2022/09/06 01:00:56;;;;;;;11.07;10.02;;;;;;;;;;5055595;28;20076;-84
2022/09/06 01:03:24;;;;;;;11.25;9.52;;;;;;;;;;5055451;28;20488;-84
2022/09/06 01:06:00;;;;;;;10.23;9.23;;;;;;;;;;5055661;28;20088;-84
2022/09/06 01:08:30;;;;;;;10.70;9.70;;;;;;;;;;5056168;28;20048;-82
2022/09/06 01:11:06;;;;;;;13.32;9.95;;;;;;;;;;5054998;28;20495;-84
2022/09/06 01:13:38;;;;;;;10.32;9.32;;;;;;;;;;5056717;28;20099;-83
2022/09/06 01:16:26;;;;;;;11.10;9.55;;;;;;;;;;5059941;28;20045;-85
2022/09/06 01:19:17;;;;;;;11.05;10.05;;;;;;;;;;5062157;28;20064;-85
2022/09/06 01:21:47;;;;;;;10.63;9.40;;;;;;;;;;5062088;28;20067;-85
2022/09/06 01:24:14;;;;;;;11.63;9.05;;;;;;;;;;5056837;28;20090;-84
2022/09/06 01:26:58;;;;;;;10.35;9.25;;;;;;;;;;5054265;28;20099;-83
2022/09/06 01:29:26;;;;;;;10.75;9.75;;;;;;;;;;5092642;22;20072;-83
2022/09/06 01:32:17;;;;;;;10.02;9.23;;;;;;;;;;5057279;28;20151;-83
2022/09/06 01:34:46;;;;;;;11.55;10.20;;;;;;;;;;5058804;28;20095;-84
2022/09/06 01:37:15;;;;;;;12.43;10.35;;;;;;;;;;5059257;28;20083;-84
2022/09/06 01:39:42;;;;;;;12.25;10.30;;;;;;;;;;5057270;28;20502;-84
2022/09/06 01:42:16;;;;;;;11.35;10.15;;;;;;;;;;5059164;28;20052;-84
2022/09/06 01:44:45;;;;;;;12.23;10.95;;;;;;;;;;5058805;28;20071;-83
2022/09/06 01:47:15;;;;;;;12.25;10.95;;;;;;;;;;5054607;28;20049;-84
2022/09/06 01:49:49;;;;;;;11.73;10.50;;;;;;;;;;5056230;28;20442;-84
2022/09/06 01:52:16;;;;;;;10.60;9.60;;;;;;;;;;5057903;28;20088;-84
2022/09/06 01:54:48;;;;;;;11.18;10.02;;;;;;;;;;5060758;28;20072;-84
2022/09/06 01:57:35;;;;;;;14.13;11.32;;;;;;;;;;5060910;28;20063;-84
2022/09/06 02:00:10;;;;;;;10.52;9.63;;;;;;;;;;5060683;28;20080;-84
2022/09/06 02:02:53;;;;;;;13.05;11.48;;;;;;;;;;5056752;28;20067;-83
2022/09/06 02:05:23;;;;;;;11.25;10.25;;;;;;;;;;5053818;28;20515;-83
2022/09/06 02:07:53;;;;;;;11.80;10.52;;;;;;;;;;5053260;28;20091;-83
2022/09/06 02:10:30;;;;;;;13.77;12.38;;;;;;;;;;5053342;28;20048;-83
2022/09/06 02:13:00;;;;;;;13.05;11.85;;;;;;;;;;5053449;28;20049;-83
2022/09/06 02:15:30;;;;;;;12.45;11.35;;;;;;;;;;5053275;28;20134;-82
2022/09/06 02:18:03;;;;;;;18.92;13.27;;;;;;;;;;5053073;28;20056;-83
2022/09/06 02:20:31;;;;;;;17.65;11.95;;;;;;;;;;5053009;28;20080;-82
2022/09/06 02:23:00;;;;;;;12.60;11.32;;;;;;;;;;5052749;28;20415;-83
2022/09/06 02:25:32;;;;;;;10.88;9.85;;;;;;;;;;5053023;28;20052;-83
2022/09/06 02:27:59;;;;;;;11.48;10.27;;;;;;;;;;5054103;28;20045;-82
2022/09/06 02:30:26;;;;;;;12.10;10.80;;;;;;;;;;5053108;28;20069;-83
2022/09/06 02:33:02;;;;;;;12.20;11.02;;;;;;;;;;5052865;28;20075;-83
2022/09/06 02:35:30;;;;;;;11.30;10.15;;;;;;;;;;5052765;28;20053;-83
2022/09/06 02:37:57;;;;;;;12.23;11.02;;;;;;;;;;5052784;28;20507;-83
2022/09/06 02:40:24;;;;;;;12.13;10.93;;;;;;;;;;5053118;28;20053;-84
2022/09/06 02:42:52;;;;;;;12.48;11.27;;;;;;;;;;5053106;28;20049;-83
2022/09/06 02:45:20;;;;;;;11.52;10.40;;;;;;;;;;5052872;28;20053;-83
2022/09/06 02:47:47;;;;;;;11.18;10.18;;;;;;;;;;5052673;28;20052;-83
2022/09/06 02:50:14;;;;;;;12.30;10.50;;;;;;;;;;5053108;28;20045;-83
2022/09/06 02:52:41;;;;;;;10.98;9.90;;;;;;;;;;5052830;28;20079;-83
2022/09/06 02:55:10;;;;;;;11.50;10.38;;;;;;;;;;5055775;28;20053;-84
2022/09/06 02:57:37;;;;;;;11.52;10.43;;;;;;;;;;5057757;28;20056;-84
2022/09/06 03:00:04;;;;;;;11.73;10.63;;;;;;;;;;5056175;28;20052;-83
2022/09/06 03:02:31;;;;;;;11.88;10.77;;;;;;;;;;5056514;28;20049;-83
2022/09/06 03:04:58;;;;;;;12.38;11.18;;;;;;;;;;5055869;28;20045;-83
2022/09/06 03:07:26;;;;;;;12.82;11.63;;;;;;;;;;5055484;28;20068;-83
2022/09/06 03:09:53;;;;;;;13.07;11.70;;;;;;;;;;5059570;28;20072;-84
2022/09/06 03:12:20;;;;;;;12.23;10.93;;;;;;;;;;5057108;28;20053;-84
2022/09/06 03:14:47;;;;;;;14.43;11.98;;;;;;;;;;5055844;28;20052;-84
2022/09/06 03:17:20;;;;;;;13.68;11.73;;;;;;;;;;5055020;28;20057;-84
2022/09/06 03:19:47;;;;;;;13.73;11.98;;;;;;;;;;5055144;28;20466;-84
2022/09/06 03:22:14;;;;;;;12.23;11.00;;;;;;;;;;5054222;28;20123;-84
2022/09/06 03:24:42;;;;;;;13.23;11.93;;;;;;;;;;5055452;28;20085;-84
2022/09/06 03:27:09;;;;;;;14.60;12.25;;;;;;;;;;5054017;28;20056;-84
2022/09/06 03:29:36;;;;;;;12.50;11.30;;;;;;;;;;5052907;28;20162;-83
2022/09/06 03:32:03;;;;;;;11.50;10.32;;;;;;;;;;5053109;28;20095;-84
2022/09/06 03:34:30;;;;;;;12.80;11.50;;;;;;;;;;5052812;28;20049;-84
2022/09/06 03:36:57;;;;;;;12.38;11.18;;;;;;;;;;5052527;28;20114;-84
2022/09/06 03:39:24;;;;;;;12.93;11.73;;;;;;;;;;5052496;28;20088;-83
2022/09/06 03:41:52;;;;;;;12.35;10.82;;;;;;;;;;5051507;28;20053;-83
2022/09/06 03:44:19;;;;;;;11.85;10.65;;;;;;;;;;5052003;28;20479;-84
2022/09/06 03:46:46;;;;;;;11.60;10.60;;;;;;;;;;5052334;28;20484;-83
2022/09/06 03:49:13;;;;;;;12.10;10.93;;;;;;;;;;5052830;28;20552;-83
2022/09/06 03:51:40;;;;;;;13.82;12.40;;;;;;;;;;5052534;28;20053;-83
2022/09/06 03:54:07;;;;;;;13.00;11.60;;;;;;;;;;5052462;28;20056;-83
2022/09/06 03:56:35;;;;;;;12.95;11.15;;;;;;;;;;5053511;28;20065;-83
2022/09/06 03:59:02;;;;;;;13.40;12.10;;;;;;;;;;5051524;28;20484;-83
2022/09/06 04:01:29;;;;;;;12.57;11.38;;;;;;;;;;5053034;28;20088;-83
2022/09/06 04:03:56;;;;;;;12.80;11.52;;;;;;;;;;5051398;28;20515;-83
2022/09/06 04:06:23;;;;;;;17.00;11.77;;;;;;;;;;5051607;28;20045;-84
2022/09/06 04:08:51;;;;;;;14.15;12.05;;;;;;;;;;5051386;28;20064;-83
2022/09/06 04:11:18;;;;;;;13.00;11.75;;;;;;;;;;5052768;28;20099;-83
2022/09/06 04:13:45;;;;;;;14.02;12.63;;;;;;;;;;5052534;28;20045;-84
2022/09/06 04:16:12;;;;;;;16.67;14.98;;;;;;;;;;5051546;28;20115;-83
2022/09/06 04:18:39;;;;;;;14.68;13.27;;;;;;;;;;5051194;28;20598;-84
2022/09/06 04:21:06;;;;;;;17.20;15.48;;;;;;;;;;5051994;28;20099;-84
2022/09/06 04:23:33;;;;;;;15.90;14.30;;;;;;;;;;5057231;28;20042;-84
2022/09/06 04:26:06;;;;;;;16.30;13.98;;;;;;;;;;5060999;28;20048;-84
2022/09/06 04:28:33;;;;;;;16.88;13.32;;;;;;;;;;5057494;28;20060;-84
2022/09/06 04:31:01;;;;;;;14.05;12.57;;;;;;;;;;5054988;28;20056;-84
2022/09/06 04:33:32;;;;;;;14.65;12.98;;;;;;;;;;5056147;28;20496;-84
2022/09/06 04:36:00;;;;;;;15.45;13.23;;;;;;;;;;5055873;28;20106;-84
2022/09/06 04:38:28;;;;;;;15.75;13.55;;;;;;;;;;5055456;28;20123;-84
2022/09/06 04:40:55;;;;;;;13.68;11.75;;;;;;;;;;5055034;28;20053;-84
2022/09/06 04:43:23;;;;;;;15.43;11.60;;;;;;;;;;5055474;28;20466;-84
2022/09/06 04:45:50;;;;;;;16.80;13.80;;;;;;;;;;5055144;28;20060;-84
2022/09/06 04:48:17;;;;;;;15.00;12.60;;;;;;;;;;5055841;28;20053;-84
2022/09/06 04:50:45;;;;;;;12.73;11.43;;;;;;;;;;5054395;28;20499;-84
2022/09/06 04:53:12;;;;;;;15.65;14.05;;;;;;;;;;5054372;28;20080;-84
2022/09/06 04:55:39;;;;;;;15.98;13.15;;;;;;;;;;5054497;28;20080;-84
2022/09/06 04:58:06;;;;;;;13.07;11.77;;;;;;;;;;5054246;28;20106;-84
2022/09/06 05:00:34;;;;;;;12.82;11.73;;;;;;;;;;5054052;28;20049;-84
2022/09/06 05:03:01;;;;;;;15.48;12.48;;;;;;;;;;5056269;28;20068;-84
2022/09/06 05:05:28;;;;;;;14.85;13.25;;;;;;;;;;5057321;28;20048;-84
2022/09/06 05:07:56;;;;;;;15.40;13.60;;;;;;;;;;5057061;28;20110;-84
2022/09/06 05:10:23;;;;;;;13.43;12.02;;;;;;;;;;5057505;28;20045;-84
2022/09/06 05:12:51;;;;;;;15.63;12.90;;;;;;;;;;5058235;28;20052;-84
2022/09/06 05:15:19;;;;;;;16.35;12.15;;;;;;;;;;5059596;28;20569;-85
2022/09/06 05:17:46;;;;;;;15.18;13.73;;;;;;;;;;5056773;28;20130;-84
2022/09/06 05:20:14;;;;;;;13.82;12.52;;;;;;;;;;5055711;28;20102;-84
2022/09/06 05:22:41;;;;;;;14.52;12.25;;;;;;;;;;5056153;28;20076;-84
2022/09/06 05:25:09;;;;;;;18.42;13.52;;;;;;;;;;5056586;28;20041;-84
2022/09/06 05:27:36;;;;;;;13.98;12.73;;;;;;;;;;5057286;28;20045;-83
2022/09/06 05:30:04;;;;;;;14.70;12.50;;;;;;;;;;5057096;28;20056;-84
2022/09/06 05:32:31;;;;;;;13.45;12.10;;;;;;;;;;5055960;28;20138;-84
2022/09/06 05:34:58;;;;;;;11.95;10.75;;;;;;;;;;5056358;28;20057;-84
2022/09/06 05:37:26;;;;;;;12.40;10.48;;;;;;;;;;5055985;28;20072;-84
2022/09/06 05:39:53;;;;;;;19.73;11.63;;;;;;;;;;5055774;28;20099;-84
2022/09/06 05:42:21;;;;;;;19.15;11.65;;;;;;;;;;5056142;28;20406;-84
2022/09/06 05:44:48;;;;;;;15.48;11.80;;;;;;;;;;5056424;28;20107;-84
2022/09/06 05:47:16;;;;;;;14.35;12.02;;;;;;;;;;5056958;28;20041;-84
2022/09/06 05:49:43;;;;;;;14.73;12.60;;;;;;;;;;5055858;28;20056;-84
2022/09/06 05:52:10;;;;;;;16.13;11.93;;;;;;;;;;5055605;28;20085;-84
2022/09/06 05:54:37;;;;;;;11.73;10.40;;;;;;;;;;5057768;28;20057;-84
2022/09/06 05:57:04;;;;;;;9.95;8.95;;;;;;;;;;5056504;28;20049;-84
2022/09/06 05:59:31;;;;;;;15.35;10.40;;;;;;;;;;5056514;28;20060;-84
2022/09/06 06:01:59;;;;;;;10.25;9.25;;;;;;;;;;5055926;28;20048;-84
2022/09/06 06:04:31;;;;;;;16.10;9.98;;;;;;;;;;5056634;28;20133;-84
2022/09/06 06:06:58;;;;;;;11.48;8.50;;;;;;;;;;5057298;28;20040;-84
2022/09/06 06:09:25;;;;;;;10.52;8.20;;;;;;;;;;5057665;28;20041;-84
2022/09/06 06:11:52;;;;;;;11.48;8.38;;;;;;;;;;5059404;28;20538;-84
2022/09/06 06:14:19;;;;;;;14.65;8.80;;;;;;;;;;5059950;28;20053;-84
2022/09/06 06:16:47;;;;;;;12.93;8.80;;;;;;;;;;5058562;28;20254;-84
2022/09/06 06:19:14;;;;;;;11.90;8.85;;;;;;;;;;5057604;28;20131;-84
2022/09/06 06:21:42;;;;;;;10.65;9.00;;;;;;;;;;5059031;28;20080;-84
2022/09/06 06:24:09;;;;;;;12.27;8.73;;;;;;;;;;5057075;28;20048;-84
2022/09/06 06:26:37;;;;;;;9.18;8.20;;;;;;;;;;5059267;28;20045;-84
2022/09/06 06:29:06;;;;;;;14.95;9.93;;;;;;;;;;5059117;28;20083;-84
2022/09/06 06:31:34;;;;;;;22.30;11.88;;;;;;;;;;5059850;28;20053;-85
2022/09/06 06:34:02;;;;;;;21.23;12.30;;;;;;;;;;5059450;28;20087;-84
2022/09/06 06:36:32;;;;;;;27.35;19.67;;;;;;;;;;5059300;28;20075;-84
2022/09/06 06:39:00;;;;;;;33.92;28.42;;;;;;;;;;5057078;28;20045;-84
2022/09/06 06:41:29;;;;;;;24.60;19.38;;;;;;;;;;5057535;28;20139;-84
2022/09/06 06:43:58;;;;;;;18.45;14.75;;;;;;;;;;5057641;28;20065;-84
2022/09/06 06:46:27;;;;;;;8.23;7.43;;;;;;;;;;5056936;28;20487;-85
2022/09/06 06:48:54;;;;;;;8.50;7.60;;;;;;;;;;5056144;28;20076;-84
2022/09/06 06:51:22;;;;;;;10.73;7.28;;;;;;;;;;5056585;28;20099;-84
2022/09/06 06:53:51;;;;;;;6.72;6.18;;;;;;;;;;5057117;28;20570;-85
2022/09/06 06:56:19;;;;;;;9.13;7.80;;;;;;;;;;5059818;28;20056;-85
2022/09/06 06:58:48;;;;;;;18.67;9.00;;;;;;;;;;5058808;28;20075;-85
2022/09/06 07:01:16;;;;;;;31.48;12.27;;;;;;;;;;5059675;28;20075;-83
2022/09/06 07:03:44;;;;;;;24.10;11.77;;;;;;;;;;5058848;28;20120;-84
2022/09/06 07:06:11;;;;;;;11.68;8.68;;;;;;;;;;5057870;28;20045;-84
2022/09/06 07:08:39;;;;;;;12.48;8.15;;;;;;;;;;5057636;28;20075;-84
2022/09/06 07:11:08;;;;;;;9.35;8.40;;;;;;;;;;5058783;28;20041;-84
2022/09/06 07:13:37;;;;;;;8.13;6.80;;;;;;;;;;5057375;28;20056;-84
2022/09/06 07:16:18;;;;;;;6.78;6.18;;;;;;;;;;5056521;28;20049;-84
2022/09/06 07:18:46;;;;;;;6.85;6.30;;;;;;;;;;5057283;28;20419;-84
2022/09/06 07:21:18;;;;;;;13.77;7.10;;;;;;;;;;5057122;28;20117;-84
2022/09/06 07:24:09;;;;;;;13.23;7.68;;;;;;;;;;5056975;28;20045;-84
2022/09/06 07:26:37;;;;;;;14.00;8.25;;;;;;;;;;5057351;28;20080;-84
2022/09/06 07:29:07;;;;;;;12.02;7.40;;;;;;;;;;5058754;23;20057;-94
2022/09/06 07:31:34;;;;;;;10.88;7.13;;;;;;;;;;5036311;28;20072;-92
2022/09/06 07:34:23;;;;;;;12.88;7.55;;;;;;;;;;5050575;28;20108;-94
2022/09/06 07:36:55;;;;;;;17.73;7.00;;;;;;;;;;5061439;28;20037;-93
2022/09/06 07:39:22;;;;;;;12.63;7.55;;;;;;;;;;5048703;28;20076;-92
2022/09/06 07:41:49;;;;;;;10.23;6.65;;;;;;;;;;5041983;28;20069;-92
2022/09/06 07:44:16;;;;;;;10.45;6.90;;;;;;;;;;5036432;28;20072;-93
2022/09/06 07:46:44;;;;;;;11.70;6.72;;;;;;;;;;5036421;28;20049;-93
2022/09/06 07:49:11;;;;;;;11.38;7.05;;;;;;;;;;5036352;28;20144;-93
2022/09/06 07:51:38;;;;;;;6.53;5.65;;;;;;;;;;5036645;28;20547;-92
2022/09/06 07:54:06;;;;;;;7.38;5.10;;;;;;;;;;5047108;28;20028;-93
2022/09/06 07:56:53;;;;;;;8.00;6.13;;;;;;;;;;5044896;28;20055;-93
2022/09/06 07:59:20;;;;;;;7.63;5.35;;;;;;;;;;5036077;28;20072;-93
2022/09/06 08:01:48;;;;;;;7.25;5.78;;;;;;;;;;5036424;28;20083;-93
2022/09/06 08:04:16;;;;;;;11.85;6.75;;;;;;;;;;5035811;28;20060;-93
2022/09/06 08:06:49;;;;;;;18.77;6.43;;;;;;;;;;5035951;28;20107;-93
2022/09/06 08:09:36;;;;;;;12.48;6.65;;;;;;;;;;5038546;28;20124;-93
2022/09/06 08:12:07;;;;;;;14.75;6.82;;;;;;;;;;5036211;28;20068;-93
2022/09/06 08:14:35;;;;;;;20.40;7.45;;;;;;;;;;5035871;28;20048;-93
2022/09/06 08:17:03;;;;;;;25.40;6.50;;;;;;;;;;5036351;28;20079;-93
2022/09/06 08:19:30;;;;;;;29.30;9.18;;;;;;;;;;5035907;28;20073;-93
2022/09/06 08:21:57;;;;;;;31.25;9.50;;;;;;;;;;5036120;28;20048;-93
2022/09/06 08:24:24;;;;;;;28.13;8.65;;;;;;;;;;5035828;28;20481;-92
2022/09/06 08:26:52;;;;;;;27.98;8.07;;;;;;;;;;5036084;28;20489;-93
2022/09/06 08:29:19;;;;;;;33.80;7.38;;;;;;;;;;5036017;28;20049;-90
2022/09/06 08:31:47;;;;;;;18.35;6.80;;;;;;;;;;5037564;28;20060;-95
2022/09/06 08:34:17;;;;;;;17.60;6.43;;;;;;;;;;5020856;28;20044;-92
2022/09/06 08:36:44;;;;;;;27.50;7.15;;;;;;;;;;5037558;28;20080;-92
2022/09/06 08:39:12;;;;;;;11.05;6.15;;;;;;;;;;5041400;28;20053;-93
2022/09/06 08:41:52;;;;;;;13.52;6.78;;;;;;;;;;5039581;28;20128;-93
2022/09/06 08:44:19;;;;;;;10.52;6.20;;;;;;;;;;5039720;28;20044;-91
2022/09/06 08:47:06;;;;;;;14.73;7.10;;;;;;;;;;5056834;28;20040;-91
2022/09/06 08:49:39;;;;;;;12.02;6.45;;;;;;;;;;5039585;28;20060;-94
2022/09/06 08:52:06;;;;;;;12.48;6.80;;;;;;;;;;5039774;28;20076;-95
2022/09/06 08:54:42;;;;;;;12.48;6.85;;;;;;;;;;5056940;28;20052;-95
2022/09/06 08:57:12;;;;;;;16.27;7.15;;;;;;;;;;5039414;28;20079;-94
2022/09/06 08:59:41;;;;;;;32.53;7.50;;;;;;;;;;5039350;28;20071;-94
2022/09/06 09:02:11;;;;;;;28.50;7.43;;;;;;;;;;5057080;28;20056;-93
2022/09/06 09:04:42;;;;;;;28.05;8.68;;;;;;;;;;5038863;28;20059;-93
2022/09/06 09:07:20;;;;;;;27.00;7.60;;;;;;;;;;5039274;28;20053;-93
2022/09/06 09:09:49;;;;;;;31.65;7.65;;;;;;;;;;5039568;28;20053;-91
2022/09/06 09:12:17;;;;;;;28.10;7.15;;;;;;;;;;5049710;28;20603;-93
2022/09/06 09:14:47;;;;;;;16.95;6.63;;;;;;;;;;5050403;28;20059;-91
2022/09/06 09:17:22;;;;;;;19.75;5.97;;;;;;;;;;5042581;28;20464;-95
2022/09/06 09:19:49;;;;;;;10.93;4.88;;;;;;;;;;5039363;28;20110;-93
2022/09/06 09:22:18;;;;;;;14.65;5.55;;;;;;;;;;5039169;28;20093;-93
2022/09/06 09:24:47;;;;;;;17.00;5.53;;;;;;;;;;5042551;28;20076;-96
2022/09/06 09:27:17;;;;;;;9.15;4.63;;;;;;;;;;5045468;28;20045;-93
2022/09/06 09:29:54;;;;;;;17.52;5.45;;;;;;;;;;5041977;28;20041;-95
2022/09/06 09:32:44;;;;;;;17.70;5.88;;;;;;;;;;5041883;28;20052;-92
2022/09/06 09:35:20;;;;;;;8.68;3.47;;;;;;;;;;5038918;28;20056;-92
2022/09/06 09:37:47;;;;;;;2.88;2.60;;;;;;;;;;5045431;28;20072;-95
2022/09/06 09:40:34;;;;;;;4.80;2.60;;;;;;;;;;5043340;28;20056;-92
2022/09/06 09:43:15;;;;;;;3.22;2.83;;;;;;;;;;5046316;28;20488;-94
2022/09/06 09:45:58;;;;;;;2.83;2.17;;;;;;;;;;5047977;28;20072;-95
2022/09/06 09:48:30;;;;;;;16.95;4.60;;;;;;;;;;5059664;28;20051;-94
2022/09/06 09:51:15;;;;;;;14.55;5.10;;;;;;;;;;5040152;28;20057;-92
2022/09/06 09:53:53;;;;;;;22.00;6.13;;;;;;;;;;5040084;28;20077;-90
2022/09/06 09:56:32;;;;;;;21.88;6.07;;;;;;;;;;5038570;28;20500;-88
2022/09/06 09:58:59;;;;;;;7.32;5.00;;;;;;;;;;5038176;28;20072;-87
2022/09/06 10:01:29;;;;;;;11.00;5.60;;;;;;;;;;5037886;28;20048;-87
2022/09/06 10:04:06;;;;;;;14.10;5.90;;;;;;;;;;5037591;28;20581;-88
2022/09/06 10:07:06;;;;;;;13.65;7.18;;;;;;;;;;5040959;28;20051;-88
2022/09/06 10:09:35;;;;;;;9.80;6.63;;;;;;;;;;5038118;28;20064;-87
2022/09/06 10:12:03;;;;;;;14.90;8.70;;;;;;;;;;5040503;28;20049;-88
2022/09/06 10:14:51;;;;;;;12.43;7.88;;;;;;;;;;5037812;28;20049;-88
2022/09/06 10:17:19;;;;;;;9.05;6.75;;;;;;;;;;5038112;28;20095;-88
2022/09/06 10:19:47;;;;;;;9.70;7.40;;;;;;;;;;5037755;28;20470;-87
2022/09/06 10:22:28;;;;;;;11.68;7.32;;;;;;;;;;5037740;28;20053;-87
2022/09/06 10:25:14;;;;;;;11.85;8.35;;;;;;;;;;5037043;28;20497;-87
2022/09/06 10:27:50;;;;;;;15.45;7.10;;;;;;;;;;5038406;28;20128;-88
2022/09/06 10:30:40;;;;;;;7.15;5.90;;;;;;;;;;5062020;28;20068;-88
2022/09/06 10:33:17;;;;;;;9.73;5.90;;;;;;;;;;5060722;28;20055;-87
2022/09/06 10:35:44;;;;;;;10.73;6.15;;;;;;;;;;5037724;28;20107;-88
2022/09/06 10:38:31;;;;;;;15.43;6.47;;;;;;;;;;5037772;28;20107;-88
2022/09/06 10:41:17;;;;;;;8.85;6.18;;;;;;;;;;5037536;28;20053;-88
2022/09/06 10:43:56;;;;;;;9.20;7.22;;;;;;;;;;5037253;28;20079;-88
2022/09/06 10:46:25;;;;;;;10.32;6.38;;;;;;;;;;5037726;28;20497;-88
2022/09/06 10:48:52;;;;;;;7.18;6.57;;;;;;;;;;5038031;28;20063;-88
2022/09/06 10:51:42;;;;;;;15.75;7.85;;;;;;;;;;5038170;28;20041;-88
2022/09/06 10:54:11;;;;;;;12.10;8.30;;;;;;;;;;5037389;28;20049;-88
2022/09/06 10:56:44;;;;;;;7.43;6.75;;;;;;;;;;5037149;28;20065;-89
2022/09/06 10:59:28;;;;;;;12.10;6.80;;;;;;;;;;5036453;28;20083;-88
2022/09/06 11:02:13;;;;;;;9.33;5.80;;;;;;;;;;5038352;28;20053;-90
2022/09/06 11:04:44;;;;;;;8.15;6.38;;;;;;;;;;5036872;28;20052;-89
2022/09/06 11:07:33;;;;;;;6.53;5.70;;;;;;;;;;5039544;28;20132;-90
2022/09/06 11:10:03;;;;;;;8.50;5.75;;;;;;;;;;5037110;28;20541;-90
2022/09/06 11:12:41;;;;;;;4.18;3.83;;;;;;;;;;5037283;28;20052;-90
2022/09/06 11:15:11;;;;;;;5.68;4.80;;;;;;;;;;5036878;28;20472;-90
2022/09/06 11:17:42;;;;;;;7.07;4.00;;;;;;;;;;5036996;28;20052;-89
2022/09/06 11:20:13;;;;;;;5.20;4.68;;;;;;;;;;5036684;28;20478;-91
2022/09/06 11:22:58;;;;;;;5.20;3.95;;;;;;;;;;5036593;28;20052;-92
2022/09/06 11:25:26;;;;;;;5.63;4.65;;;;;;;;;;5036353;28;20103;-92
2022/09/06 11:27:55;;;;;;;4.05;3.63;;;;;;;;;;5036629;28;20075;-91
2022/09/06 11:30:25;;;;;;;3.67;3.10;;;;;;;;;;5037457;28;20373;-92
2022/09/06 11:33:05;;;;;;;5.18;3.17;;;;;;;;;;5036938;28;20048;-93
2022/09/06 11:35:33;;;;;;;5.00;3.35;;;;;;;;;;5036538;28;20079;-95
2022/09/06 11:38:02;;;;;;;3.42;3.13;;;;;;;;;;5037581;28;20056;-91
2022/09/06 11:40:36;;;;;;;3.10;2.90;;;;;;;;;;5038184;28;20076;-90
2022/09/06 11:43:03;;;;;;;5.72;2.72;;;;;;;;;;5037268;28;20096;-90
2022/09/06 11:45:42;;;;;;;3.13;2.92;;;;;;;;;;5036041;28;20458;-90
2022/09/06 11:48:22;;;;;;;4.53;2.58;;;;;;;;;;5037224;28;20049;-89
2022/09/06 11:50:58;;;;;;;2.63;2.50;;;;;;;;;;5048738;28;20053;-91
2022/09/06 11:53:27;;;;;;;3.85;2.75;;;;;;;;;;5036335;28;20049;-89
2022/09/06 11:55:57;;;;;;;3.42;2.25;;;;;;;;;;5036355;28;20049;-90
2022/09/06 11:58:43;;;;;;;2.25;2.15;;;;;;;;;;5036104;28;20055;-95
2022/09/06 12:01:15;;;;;;;2.80;2.63;;;;;;;;;;5036458;28;20486;-91
2022/09/06 12:03:42;;;;;;;3.05;2.38;;;;;;;;;;5036249;28;20507;-94
2022/09/06 12:06:31;;;;;;;2.45;2.28;;;;;;;;;;5039401;28;20056;-92
2022/09/06 12:08:59;;;;;;;2.40;2.28;;;;;;;;;;5053586;28;20076;-93
2022/09/06 12:11:41;;;;;;;3.75;2.40;;;;;;;;;;5055821;28;20065;-91
2022/09/06 12:14:20;;;;;;;5.05;2.17;;;;;;;;;;5057978;28;20083;-95
2022/09/06 12:16:57;;;;;;;2.35;2.15;;;;;;;;;;5040218;28;20076;-91
2022/09/06 12:19:41;;;;;;;2.30;2.20;;;;;;;;;;5061209;28;20485;-96
2022/09/06 12:22:28;;;;;;;2.10;2.00;;;;;;;;;;5057471;28;20060;-95
2022/09/06 12:25:06;;;;;;;2.10;1.90;;;;;;;;;;5061870;28;20049;-95
2022/09/06 12:27:38;;;;;;;3.00;2.08;;;;;;;;;;5065946;28;20570;-96
2022/09/06 12:30:07;;;;;;;2.17;2.08;;;;;;;;;;5043887;28;20144;-95
2022/09/06 12:32:47;;;;;;;1.92;1.80;;;;;;;;;;5038661;28;20069;-92
2022/09/06 12:35:30;;;;;;;2.30;2.10;;;;;;;;;;5046909;28;20053;-96
2022/09/06 12:38:22;;;;;;;2.10;1.90;;;;;;;;;;5039509;28;20053;-93
2022/09/06 12:40:57;;;;;;;2.03;1.92;;;;;;;;;;5038804;28;20108;-95
2022/09/06 12:43:25;;;;;;;3.38;2.42;;;;;;;;;;5036659;28;20069;-91
2022/09/06 12:45:53;;;;;;;3.30;2.30;;;;;;;;;;5036168;28;20144;-93
2022/09/06 12:48:34;;;;;;;2.50;1.95;;;;;;;;;;5036156;28;20084;-93
2022/09/06 12:51:05;;;;;;;2.15;2.05;;;;;;;;;;5036786;28;20080;-92
2022/09/06 12:53:37;;;;;;;5.13;2.50;;;;;;;;;;5038598;28;20132;-94
2022/09/06 12:56:06;;;;;;;2.10;2.00;;;;;;;;;;5037943;28;20103;-90
2022/09/06 12:58:33;;;;;;;3.13;2.15;;;;;;;;;;5039155;28;20072;-92
2022/09/06 13:01:03;;;;;;;3.92;2.10;;;;;;;;;;5035960;28;20386;-91
2022/09/06 13:03:40;;;;;;;3.83;2.33;;;;;;;;;;5037365;28;20077;-96
2022/09/06 13:06:07;;;;;;;3.53;2.00;;;;;;;;;;5038631;28;20053;-93
2022/09/06 13:08:44;;;;;;;2.65;2.15;;;;;;;;;;5052719;28;20037;-91
2022/09/06 13:11:13;;;;;;;3.50;2.25;;;;;;;;;;5039643;28;20069;-93
2022/09/06 13:13:47;;;;;;;3.92;2.10;;;;;;;;;;5035609;28;20076;-94
2022/09/06 13:16:22;;;;;;;4.60;2.30;;;;;;;;;;5036036;28;20461;-94
2022/09/06 13:18:49;;;;;;;2.13;2.03;;;;;;;;;;5035519;28;20045;-90
2022/09/06 13:21:28;;;;;;;3.55;2.10;;;;;;;;;;5047041;28;20045;-91
2022/09/06 13:23:57;;;;;;;2.60;2.22;;;;;;;;;;5056707;28;20505;-91
2022/09/06 13:26:32;;;;;;;2.38;2.17;;;;;;;;;;5039550;28;20509;-92
2022/09/06 13:29:21;;;;;;;2.53;2.30;;;;;;;;;;5035344;28;20506;-90
2022/09/06 13:31:52;;;;;;;5.35;2.58;;;;;;;;;;5035320;28;20085;-92
2022/09/06 13:34:21;;;;;;;4.07;2.47;;;;;;;;;;5035047;28;20069;-90
2022/09/06 13:36:49;;;;;;;2.10;2.00;;;;;;;;;;5035223;28;20045;-92
2022/09/06 13:39:36;;;;;;;2.88;2.60;;;;;;;;;;5035097;28;20085;-91
2022/09/06 13:42:08;;;;;;;4.55;2.38;;;;;;;;;;5035214;28;20140;-91
2022/09/06 13:44:36;;;;;;;2.35;2.15;;;;;;;;;;5034640;28;20095;-92
2022/09/06 13:47:04;;;;;;;2.53;2.25;;;;;;;;;;5035067;28;20502;-92
2022/09/06 13:49:31;;;;;;;2.25;2.15;;;;;;;;;;5034736;28;20054;-93
2022/09/06 13:52:00;;;;;;;2.55;2.35;;;;;;;;;;5035061;28;20069;-91
2022/09/06 13:54:28;;;;;;;2.38;2.28;;;;;;;;;;5034658;28;20413;-92
2022/09/06 13:56:55;;;;;;;4.20;2.70;;;;;;;;;;5034876;28;20069;-91
2022/09/06 13:59:23;;;;;;;16.58;3.40;;;;;;;;;;5035032;28;20530;-91
2022/09/06 14:02:19;;;;;;;3.25;2.60;;;;;;;;;;5034799;28;20049;-90
2022/09/06 14:04:46;;;;;;;3.90;2.72;;;;;;;;;;5034543;28;20103;-93
2022/09/06 14:07:14;;;;;;;5.05;2.53;;;;;;;;;;5036815;28;20061;-92
2022/09/06 14:09:41;;;;;;;2.25;2.15;;;;;;;;;;5034802;28;20053;-91
2022/09/06 14:12:09;;;;;;;2.80;2.63;;;;;;;;;;5034664;28;20132;-91
2022/09/06 14:14:36;;;;;;;6.72;2.60;;;;;;;;;;5034381;28;20484;-92
2022/09/06 14:17:03;;;;;;;5.75;2.92;;;;;;;;;;5034441;28;20045;-91
2022/09/06 14:19:31;;;;;;;2.60;2.50;;;;;;;;;;5034760;28;20054;-89
2022/09/06 14:21:58;;;;;;;3.45;2.67;;;;;;;;;;5035809;28;20053;-92
2022/09/06 14:24:25;;;;;;;2.88;2.67;;;;;;;;;;5035685;28;20073;-92
2022/09/06 14:26:53;;;;;;;2.92;2.72;;;;;;;;;;5051380;28;20033;-91
2022/09/06 14:29:20;;;;;;;4.47;2.85;;;;;;;;;;5034650;28;20053;-93
2022/09/06 14:31:47;;;;;;;5.85;3.05;;;;;;;;;;5034501;28;20140;-92
2022/09/06 14:34:15;;;;;;;3.85;2.75;;;;;;;;;;5034201;28;20480;-93
2022/09/06 14:36:42;;;;;;;4.57;2.55;;;;;;;;;;5034502;28;20076;-93
2022/09/06 14:39:09;;;;;;;2.63;2.50;;;;;;;;;;5034118;28;20073;-93
2022/09/06 14:41:36;;;;;;;4.20;2.70;;;;;;;;;;5033767;28;20136;-89
2022/09/06 14:44:04;;;;;;;2.65;2.45;;;;;;;;;;5036631;28;20057;-92
2022/09/06 14:46:31;;;;;;;2.83;2.58;;;;;;;;;;5034050;28;20401;-93
2022/09/06 14:49:00;;;;;;;2.95;2.38;;;;;;;;;;5034206;28;20482;-91
2022/09/06 14:51:28;;;;;;;3.13;2.83;;;;;;;;;;5033791;28;20073;-92
2022/09/06 14:53:56;;;;;;;3.10;2.65;;;;;;;;;;5034300;28;20049;-94